createdAt,value
2019-05-26T00:01:46.664Z,10.30
2019-05-26T00:04:17.704Z,10.40
2019-05-26T00:06:48.790Z,10.40
2019-05-26T00:09:18.950Z,10.50
2019-05-26T00:11:58.120Z,10.50
2019-05-26T00:14:30.164Z,10.50
2019-05-26T00:17:06.029Z,10.60
2019-05-26T00:19:37.050Z,10.60
2019-05-26T00:22:09.118Z,10.50
2019-05-26T00:24:41.864Z,10.50
2019-05-26T00:27:13.964Z,10.50
2019-05-26T00:29:44.084Z,10.50
2019-05-26T00:32:29.144Z,10.50
2019-05-26T00:35:06.724Z,10.50
2019-05-26T00:37:49.195Z,10.40
2019-05-26T00:40:14.199Z,10.30
2019-05-26T00:42:53.230Z,10.20
2019-05-26T00:45:38.682Z,10.10
2019-05-26T00:48:10.749Z,10.10
2019-05-26T00:50:45.057Z,10.20
2019-05-26T00:53:15.169Z,10.20
2019-05-26T00:55:52.967Z,10.20
2019-05-26T00:58:23.077Z,10.20
2019-05-26T01:00:54.145Z,10.20
2019-05-26T01:03:24.240Z,10.20
2019-05-26T01:06:00.216Z,10.20
2019-05-26T01:08:30.316Z,10.30
2019-05-26T01:11:01.491Z,10.30
2019-05-26T01:13:32.757Z,10.20
2019-05-26T01:16:02.872Z,10.00
2019-05-26T01:18:34.868Z,10.00
2019-05-26T01:21:07.985Z,9.90
2019-05-26T01:23:38.086Z,9.90
2019-05-26T01:26:23.632Z,9.90
2019-05-26T01:28:54.601Z,9.90
2019-05-26T01:31:25.947Z,9.70
2019-05-26T01:33:59.248Z,9.60
2019-05-26T01:36:35.956Z,9.40
2019-05-26T01:39:08.693Z,9.40
2019-05-26T01:41:40.762Z,9.40
2019-05-26T01:44:10.861Z,9.40
2019-05-26T01:46:46.131Z,9.40
2019-05-26T01:49:32.269Z,9.30
2019-05-26T01:52:02.329Z,9.30
2019-05-26T01:54:35.090Z,9.30
2019-05-26T01:57:05.216Z,9.30
2019-05-26T01:59:36.282Z,9.30
2019-05-26T02:02:06.456Z,9.30
2019-05-26T02:04:36.556Z,9.30
2019-05-26T02:07:06.679Z,9.40
2019-05-26T02:09:36.761Z,9.30
2019-05-26T02:12:06.860Z,9.20
2019-05-26T02:14:37.904Z,9.10
2019-05-26T02:17:09.100Z,9.00
2019-05-26T02:19:39.199Z,8.90
2019-05-26T02:22:09.360Z,8.80
2019-05-26T02:24:39.444Z,8.70
2019-05-26T02:27:15.366Z,8.80
2019-05-26T02:29:52.257Z,8.70
2019-05-26T02:32:22.387Z,8.60
2019-05-26T02:34:53.689Z,8.50
2019-05-26T02:37:24.763Z,8.40
2019-05-26T02:39:56.818Z,8.50
2019-05-26T02:42:28.902Z,8.60
2019-05-26T02:45:02.185Z,8.70
2019-05-26T02:47:32.357Z,8.60
2019-05-26T02:50:08.739Z,8.70
2019-05-26T02:52:40.858Z,8.70
2019-05-26T02:55:19.801Z,8.70
2019-05-26T02:57:49.886Z,8.80
2019-05-26T03:00:45.055Z,8.80
2019-05-26T03:03:21.135Z,8.80
2019-05-26T03:05:55.612Z,8.80
2019-05-26T03:08:29.956Z,8.80
2019-05-26T03:11:02.066Z,8.80
2019-05-26T03:13:35.801Z,8.90
2019-05-26T03:16:07.353Z,8.80
2019-05-26T03:18:46.316Z,8.90
2019-05-26T03:21:20.773Z,9.00
2019-05-26T03:23:54.662Z,9.00
2019-05-26T03:26:29.789Z,9.00
2019-05-26T03:29:00.997Z,8.80
2019-05-26T03:31:32.064Z,8.70
2019-05-26T03:34:05.704Z,8.50
2019-05-26T03:36:35.802Z,8.40
2019-05-26T03:39:07.719Z,8.30
2019-05-26T03:41:38.833Z,8.30
2019-05-26T03:44:10.872Z,8.30
2019-05-26T03:46:42.928Z,8.30
2019-05-26T03:49:13.009Z,8.40
2019-05-26T03:51:44.154Z,8.40
2019-05-26T03:54:14.267Z,8.40
2019-05-26T03:56:44.351Z,8.40
2019-05-26T03:59:14.453Z,8.40
2019-05-26T04:01:44.576Z,8.40
2019-05-26T04:04:15.609Z,8.40
2019-05-26T04:06:45.730Z,8.40
2019-05-26T04:09:16.746Z,8.40
2019-05-26T04:11:48.803Z,8.50
2019-05-26T04:14:19.897Z,8.60
2019-05-26T04:16:51.793Z,8.60
2019-05-26T04:19:21.895Z,8.70
2019-05-26T04:21:57.998Z,8.70
2019-05-26T04:24:31.292Z,8.70
2019-05-26T04:27:01.413Z,8.80
2019-05-26T04:29:33.470Z,8.70
2019-05-26T04:32:04.509Z,8.80
2019-05-26T04:34:34.600Z,8.90
2019-05-26T04:37:04.714Z,9.10
2019-05-26T04:39:37.412Z,9.20
2019-05-26T04:42:07.516Z,9.30
2019-05-26T04:44:39.621Z,9.40
2019-05-26T04:47:10.657Z,9.40
2019-05-26T04:49:42.722Z,9.40
2019-05-26T04:52:14.798Z,9.60
2019-05-26T04:54:48.549Z,9.70
2019-05-26T04:57:20.769Z,9.80
2019-05-26T04:59:52.838Z,10.00
2019-05-26T05:02:24.881Z,10.10
2019-05-26T05:05:00.737Z,10.20
2019-05-26T05:07:31.773Z,10.30
2019-05-26T05:10:02.889Z,10.40
2019-05-26T05:12:33.008Z,10.60
2019-05-26T05:15:10.757Z,10.70
2019-05-26T05:17:40.856Z,10.80
2019-05-26T05:20:14.153Z,10.90
2019-05-26T05:22:49.954Z,11.00
2019-05-26T05:25:20.073Z,11.20
2019-05-26T05:27:51.203Z,11.40
2019-05-26T05:30:24.948Z,11.50
2019-05-26T05:32:56.921Z,11.60
2019-05-26T05:35:27.021Z,11.90
2019-05-26T05:37:58.101Z,12.30
2019-05-26T05:40:30.167Z,12.50
2019-05-26T05:43:18.501Z,12.70
2019-05-26T05:45:48.854Z,13.00
2019-05-26T05:48:19.981Z,13.30
2019-05-26T05:50:50.088Z,13.60
2019-05-26T05:53:25.978Z,13.90
2019-05-26T05:55:56.056Z,14.30
2019-05-26T05:58:26.153Z,14.60
2019-05-26T06:01:04.837Z,14.80
2019-05-26T06:03:34.949Z,15.00
2019-05-26T06:06:05.049Z,15.10
2019-05-26T06:08:35.210Z,15.40
2019-05-26T06:11:16.068Z,15.60
2019-05-26T06:13:39.888Z,15.50
2019-05-26T06:16:15.125Z,15.40
2019-05-26T06:18:46.229Z,15.50
2019-05-26T06:21:16.316Z,15.70
2019-05-26T06:23:46.447Z,15.70
2019-05-26T06:26:19.201Z,15.80
2019-05-26T06:28:52.345Z,15.70
2019-05-26T06:31:30.181Z,15.90
2019-05-26T06:34:02.290Z,16.00
2019-05-26T06:36:32.369Z,16.20
2019-05-26T06:39:09.190Z,16.30
2019-05-26T06:41:40.281Z,16.60
2019-05-26T06:44:10.413Z,16.40
2019-05-26T06:46:40.509Z,16.50
2019-05-26T06:49:14.210Z,16.70
2019-05-26T06:51:44.308Z,17.00
2019-05-26T06:54:14.433Z,17.10
2019-05-26T06:56:47.207Z,17.30
2019-05-26T06:59:18.315Z,17.40
2019-05-26T07:01:48.421Z,17.60
2019-05-26T07:04:18.506Z,17.70
2019-05-26T07:06:48.597Z,17.80
2019-05-26T07:09:18.699Z,18.00
2019-05-26T07:11:57.093Z,17.90
2019-05-26T07:14:20.566Z,17.80
2019-05-26T07:16:51.731Z,17.60
2019-05-26T07:21:56.121Z,17.90
2019-05-26T07:24:29.319Z,18.10
2019-05-26T07:27:00.538Z,18.70
2019-05-26T07:29:30.614Z,19.40
2019-05-26T07:32:00.701Z,20.10
2019-05-26T07:34:30.829Z,20.60
2019-05-26T07:37:00.973Z,20.50
2019-05-26T07:39:33.048Z,20.40
2019-05-26T07:42:10.575Z,20.50
2019-05-26T07:44:36.249Z,20.80
2019-05-26T07:47:08.267Z,21.40
2019-05-26T07:49:38.355Z,21.70
2019-05-26T07:52:08.521Z,22.10
2019-05-26T07:54:38.606Z,22.30
2019-05-26T07:57:09.638Z,22.50
2019-05-26T07:59:39.730Z,23.00
2019-05-26T08:02:10.065Z,23.20
2019-05-26T08:04:40.175Z,23.10
2019-05-26T08:07:10.283Z,23.40
2019-05-26T08:09:41.281Z,23.60
2019-05-26T08:12:24.902Z,23.00
2019-05-26T08:14:44.157Z,22.70
2019-05-26T08:17:16.229Z,22.80
2019-05-26T08:19:46.333Z,23.20
2019-05-26T08:22:16.432Z,23.40
2019-05-26T08:24:46.509Z,23.80
2019-05-26T08:27:16.613Z,24.20
2019-05-26T08:29:46.693Z,24.70
2019-05-26T08:32:16.774Z,24.80
2019-05-26T08:34:48.786Z,25.00
2019-05-26T08:37:23.310Z,25.20
2019-05-26T08:39:57.043Z,25.10
2019-05-26T08:42:43.779Z,25.50
2019-05-26T08:45:02.881Z,25.90
2019-05-26T08:47:32.969Z,25.80
2019-05-26T08:50:04.157Z,26.10
2019-05-26T08:52:37.261Z,26.40
2019-05-26T08:55:08.945Z,25.50
2019-05-26T08:57:39.045Z,24.60
2019-05-26T09:00:10.981Z,25.10
2019-05-26T09:02:43.449Z,26.40
2019-05-26T09:05:14.246Z,27.40
2019-05-26T09:07:46.269Z,27.80
2019-05-26T09:10:17.085Z,26.60
2019-05-26T09:13:00.980Z,25.20
2019-05-26T09:15:30.749Z,25.10
2019-05-26T09:18:01.947Z,24.40
2019-05-26T09:20:33.073Z,23.50
2019-05-26T09:23:03.153Z,22.90
2019-05-26T09:25:36.969Z,22.40
2019-05-26T09:28:07.094Z,23.80
2019-05-26T09:30:37.178Z,26.30
2019-05-26T09:33:07.273Z,27.00
2019-05-26T09:35:38.347Z,25.70
2019-05-26T09:38:08.430Z,25.50
2019-05-26T09:40:40.561Z,25.60
2019-05-26T09:43:16.150Z,26.90
2019-05-26T09:45:45.029Z,28.20
2019-05-26T09:48:15.135Z,29.40
2019-05-26T09:50:45.218Z,27.30
2019-05-26T09:53:15.322Z,26.50
2019-05-26T09:55:45.424Z,26.30
2019-05-26T09:58:17.673Z,27.30
2019-05-26T10:00:56.411Z,26.90
2019-05-26T10:03:35.502Z,25.80
2019-05-26T10:06:05.666Z,25.30
2019-05-26T10:08:41.554Z,24.70
2019-05-26T10:11:11.726Z,25.20
2019-05-26T10:13:41.821Z,25.10
2019-05-26T10:16:14.899Z,24.80
2019-05-26T10:18:46.923Z,24.60
2019-05-26T10:21:24.789Z,23.80
2019-05-26T10:23:54.882Z,23.30
2019-05-26T10:26:28.698Z,23.40
2019-05-26T10:29:00.756Z,23.70
2019-05-26T10:31:36.171Z,25.30
2019-05-26T10:34:09.626Z,25.80
2019-05-26T10:36:39.747Z,25.20
2019-05-26T10:39:10.769Z,26.20
2019-05-26T10:41:42.779Z,28.50
2019-05-26T10:44:14.906Z,30.20
2019-05-26T10:46:48.990Z,31.70
2019-05-26T10:49:19.172Z,29.80
2019-05-26T10:51:50.098Z,28.20
2019-05-26T10:54:20.194Z,26.90
2019-05-26T10:56:51.271Z,25.40
2019-05-26T10:59:21.383Z,24.60
2019-05-26T11:01:51.454Z,24.80
2019-05-26T11:04:24.211Z,27.10
2019-05-26T11:06:58.333Z,29.30
2019-05-26T11:09:28.426Z,31.30
2019-05-26T11:11:58.519Z,31.70
2019-05-26T11:14:32.226Z,30.30
2019-05-26T11:17:03.287Z,31.00
2019-05-26T11:19:34.326Z,32.10
2019-05-26T11:22:10.194Z,32.70
2019-05-26T11:24:40.287Z,30.90
2019-05-26T11:27:16.259Z,28.60
2019-05-26T11:29:47.311Z,27.30
2019-05-26T11:32:19.352Z,28.20
2019-05-26T11:35:01.654Z,28.10
2019-05-26T11:37:33.822Z,27.00
2019-05-26T11:40:07.210Z,26.00
2019-05-26T11:42:46.452Z,25.40
2019-05-26T11:45:19.535Z,26.20
2019-05-26T11:47:49.622Z,25.90
2019-05-26T11:50:19.970Z,27.40
2019-05-26T11:52:51.074Z,29.30
2019-05-26T11:55:21.186Z,32.10
2019-05-26T11:57:53.212Z,34.20
2019-05-26T12:00:23.363Z,35.60
2019-05-26T12:02:54.358Z,36.60
2019-05-26T12:05:24.444Z,34.60
2019-05-26T12:07:54.535Z,32.40
2019-05-26T12:10:28.892Z,30.70
2019-05-26T12:13:11.170Z,31.00
2019-05-26T12:15:41.260Z,32.00
2019-05-26T12:18:12.306Z,31.40
2019-05-26T12:20:44.418Z,30.90
2019-05-26T12:23:23.545Z,32.00
2019-05-26T12:25:53.573Z,31.90
2019-05-26T12:28:29.339Z,30.30
2019-05-26T12:31:00.374Z,29.30
2019-05-26T12:33:30.450Z,28.70
2019-05-26T12:36:00.578Z,28.40
2019-05-26T12:38:30.658Z,30.50
2019-05-26T12:41:00.731Z,33.20
2019-05-26T12:43:32.844Z,34.00
2019-05-26T12:46:06.934Z,32.80
2019-05-26T12:48:38.998Z,31.50
2019-05-26T12:51:12.746Z,30.20
2019-05-26T12:53:43.766Z,31.70
2019-05-26T12:56:14.954Z,32.00
2019-05-26T12:58:45.094Z,32.50
2019-05-26T13:01:17.170Z,33.70
2019-05-26T13:03:47.282Z,34.50
2019-05-26T13:06:17.828Z,33.10
2019-05-26T13:08:48.950Z,30.50
2019-05-26T13:11:31.274Z,30.30
2019-05-26T13:14:01.347Z,32.20
2019-05-26T13:16:35.806Z,33.80
2019-05-26T13:19:05.871Z,34.90
2019-05-26T13:21:44.872Z,33.80
2019-05-26T13:24:18.414Z,32.00
2019-05-26T13:26:46.750Z,31.30
2019-05-26T13:29:16.846Z,31.60
2019-05-26T13:31:46.942Z,32.30
2019-05-26T13:34:17.034Z,33.80
2019-05-26T13:36:49.105Z,34.00
2019-05-26T13:39:19.162Z,35.40
2019-05-26T13:41:49.250Z,35.00
2019-05-26T13:44:19.365Z,33.30
2019-05-26T13:46:50.802Z,32.00
2019-05-26T13:49:20.950Z,30.50
2019-05-26T13:51:51.062Z,29.40
2019-05-26T13:54:21.161Z,30.90
2019-05-26T13:56:51.258Z,29.90
2019-05-26T13:59:21.451Z,28.80
2019-05-26T14:01:57.394Z,28.10
2019-05-26T14:04:30.490Z,27.40
2019-05-26T14:07:00.578Z,26.90
2019-05-26T14:09:31.662Z,26.80
2019-05-26T14:12:20.122Z,27.80
2019-05-26T14:14:50.575Z,27.30
2019-05-26T14:17:22.090Z,26.20
2019-05-26T14:19:53.817Z,25.80
2019-05-26T14:22:24.870Z,25.70
2019-05-26T14:24:54.954Z,26.30
2019-05-26T14:27:25.034Z,28.90
2019-05-26T14:30:00.362Z,30.50
2019-05-26T14:32:31.375Z,32.70
2019-05-26T14:35:01.482Z,34.30
2019-05-26T14:37:33.152Z,35.70
2019-05-26T14:40:09.747Z,35.60
2019-05-26T14:42:39.835Z,33.50
2019-05-26T14:45:11.695Z,31.10
2019-05-26T14:47:41.792Z,28.40
2019-05-26T14:50:16.930Z,26.70
2019-05-26T14:52:48.930Z,26.00
2019-05-26T14:55:21.729Z,25.80
2019-05-26T14:57:51.804Z,25.80
2019-05-26T15:00:23.714Z,25.60
2019-05-26T15:02:53.798Z,27.10
2019-05-26T15:05:28.854Z,29.00
2019-05-26T15:07:58.986Z,29.30
2019-05-26T15:10:29.081Z,28.30
2019-05-26T15:12:59.162Z,27.00
2019-05-26T15:15:29.250Z,26.20
2019-05-26T15:18:08.272Z,25.80
2019-05-26T15:20:41.355Z,26.90
2019-05-26T15:23:11.434Z,28.70
2019-05-26T15:25:50.398Z,30.50
2019-05-26T15:28:20.502Z,31.20
2019-05-26T15:30:50.578Z,30.80
2019-05-26T15:33:21.654Z,31.60
2019-05-26T15:35:52.710Z,31.80
2019-05-26T15:38:22.831Z,30.00
2019-05-26T15:40:52.911Z,29.20
2019-05-26T15:43:24.923Z,27.80
2019-05-26T15:45:56.474Z,26.60
2019-05-26T15:48:27.503Z,25.20
2019-05-26T15:50:57.610Z,24.60
2019-05-26T15:53:27.763Z,24.20
2019-05-26T15:55:57.839Z,23.90
2019-05-26T15:58:27.927Z,24.10
2019-05-26T16:00:59.012Z,24.50
2019-05-26T16:03:35.894Z,25.70
2019-05-26T16:06:06.914Z,26.80
2019-05-26T16:08:37.007Z,27.50
2019-05-26T16:11:07.091Z,27.90
2019-05-26T16:13:38.430Z,28.70
2019-05-26T16:16:08.536Z,29.20
2019-05-26T16:18:38.615Z,29.30
2019-05-26T16:21:24.766Z,29.10
2019-05-26T16:23:42.562Z,28.80
2019-05-26T16:26:13.607Z,27.70
2019-05-26T16:28:53.853Z,26.70
2019-05-26T16:31:24.919Z,26.30
2019-05-26T16:33:56.990Z,25.90
2019-05-26T16:36:34.051Z,25.80
2019-05-26T16:39:05.847Z,25.10
2019-05-26T16:41:35.932Z,25.40
2019-05-26T16:44:06.967Z,25.90
2019-05-26T16:46:38.010Z,26.20
2019-05-26T16:49:08.090Z,25.60
2019-05-26T16:51:43.155Z,24.60
2019-05-26T16:54:15.228Z,23.80
2019-05-26T16:56:47.300Z,23.30
2019-05-26T16:59:19.259Z,23.00
2019-05-26T17:01:50.985Z,22.70
2019-05-26T17:04:27.122Z,22.50
2019-05-26T17:06:57.209Z,22.30
2019-05-26T17:09:27.298Z,22.20
2019-05-26T17:12:00.417Z,22.20
2019-05-26T17:14:30.500Z,22.10
2019-05-26T17:17:13.575Z,22.10
2019-05-26T17:19:33.301Z,22.00
2019-05-26T17:22:03.384Z,22.00
2019-05-26T17:24:36.655Z,22.40
2019-05-26T17:27:06.820Z,22.80
2019-05-26T17:29:38.927Z,23.40
2019-05-26T17:32:09.008Z,24.00
2019-05-26T17:34:40.084Z,24.40
2019-05-26T17:37:19.088Z,24.70
2019-05-26T17:39:50.128Z,24.70
2019-05-26T17:42:21.187Z,24.60
2019-05-26T17:44:52.241Z,24.60
2019-05-26T17:47:30.306Z,24.80
2019-05-26T17:49:58.099Z,25.10
2019-05-26T17:52:28.187Z,25.00
2019-05-26T17:54:58.351Z,24.60
2019-05-26T17:57:30.932Z,24.20
2019-05-26T18:00:01.051Z,23.70
2019-05-26T18:02:38.358Z,23.20
2019-05-26T18:05:10.600Z,22.60
2019-05-26T18:08:00.766Z,22.10
2019-05-26T18:10:32.471Z,21.60
2019-05-26T18:13:02.997Z,21.10
2019-05-26T18:15:33.146Z,20.80
2019-05-26T18:18:05.800Z,20.40
2019-05-26T18:20:35.867Z,20.20
2019-05-26T18:23:05.952Z,19.90
2019-05-26T18:25:36.059Z,19.70
2019-05-26T18:28:17.193Z,19.50
2019-05-26T18:30:47.328Z,19.30
2019-05-26T18:33:20.287Z,19.10
2019-05-26T18:35:50.364Z,19.00
2019-05-26T18:38:20.467Z,18.80
2019-05-26T18:40:51.518Z,18.70
2019-05-26T18:43:23.527Z,18.50
2019-05-26T18:45:53.703Z,18.40
2019-05-26T18:48:23.763Z,18.20
2019-05-26T18:50:53.887Z,18.00
2019-05-26T18:53:23.963Z,17.90
2019-05-26T18:55:54.061Z,17.70
2019-05-26T18:58:24.180Z,17.60
2019-05-26T19:00:55.327Z,17.40
2019-05-26T19:03:27.368Z,17.10
2019-05-26T19:05:57.527Z,16.90
2019-05-26T19:08:29.535Z,16.80
2019-05-26T19:11:05.752Z,16.70
2019-05-26T19:13:41.894Z,16.70
2019-05-26T19:16:12.884Z,16.60
2019-05-26T19:18:45.108Z,16.50
2019-05-26T19:21:17.193Z,16.30
2019-05-26T19:23:49.855Z,16.20
2019-05-26T19:26:22.087Z,16.10
2019-05-26T19:28:52.208Z,15.90
2019-05-26T19:31:22.303Z,15.80
2019-05-26T19:33:53.349Z,15.70
2019-05-26T19:36:26.532Z,15.50
2019-05-26T19:38:59.641Z,15.40
2019-05-26T19:41:30.736Z,15.30
2019-05-26T19:44:00.890Z,15.20
2019-05-26T19:46:30.991Z,15.10
2019-05-26T19:49:03.091Z,15.00
2019-05-26T19:51:34.215Z,15.00
2019-05-26T19:54:10.354Z,14.80
2019-05-26T19:56:43.147Z,14.60
2019-05-26T19:59:14.208Z,14.40
2019-05-26T20:01:44.309Z,14.20
2019-05-26T20:04:25.662Z,14.00
2019-05-26T20:06:56.751Z,13.90
2019-05-26T20:09:26.852Z,13.90
2019-05-26T20:11:58.915Z,13.80
2019-05-26T20:14:29.004Z,13.80
2019-05-26T20:16:59.113Z,13.80
2019-05-26T20:19:29.215Z,13.70
2019-05-26T20:21:59.310Z,13.70
2019-05-26T20:24:31.779Z,13.60
2019-05-26T20:27:01.315Z,13.40
2019-05-26T20:29:31.015Z,13.30
2019-05-26T20:32:01.125Z,13.20
2019-05-26T20:34:31.275Z,13.20
2019-05-26T20:37:04.328Z,13.20
2019-05-26T20:39:37.819Z,13.20
2019-05-26T20:42:12.029Z,13.10
2019-05-26T20:44:42.115Z,13.00
2019-05-26T20:47:19.256Z,12.80
2019-05-26T20:49:49.359Z,12.70
2019-05-26T20:52:20.787Z,12.60
2019-05-26T20:54:53.377Z,12.50
2019-05-26T20:57:25.430Z,12.40
2019-05-26T20:59:55.555Z,12.40
2019-05-26T21:02:25.696Z,12.30
2019-05-26T21:04:58.535Z,12.30
2019-05-26T21:07:49.808Z,12.20
2019-05-26T21:10:21.657Z,12.30
2019-05-26T21:12:52.955Z,12.20
2019-05-26T21:15:26.233Z,12.20
2019-05-26T21:17:56.369Z,12.10
2019-05-26T21:20:33.199Z,12.00
2019-05-26T21:23:03.283Z,11.90
2019-05-26T21:25:39.643Z,11.90
2019-05-26T21:28:18.579Z,11.80
2019-05-26T21:30:48.854Z,11.80
2019-05-26T21:33:20.863Z,11.70
2019-05-26T21:35:50.980Z,11.60
2019-05-26T21:38:21.033Z,11.50
2019-05-26T21:40:52.047Z,11.40
2019-05-26T21:43:28.255Z,11.40
2019-05-26T21:45:58.316Z,11.40
2019-05-26T21:48:28.419Z,11.40
2019-05-26T21:51:00.527Z,11.40
2019-05-26T21:53:38.385Z,11.30
2019-05-26T21:56:14.807Z,11.30
2019-05-26T21:58:45.891Z,11.20
2019-05-26T22:01:18.734Z,11.20
2019-05-26T22:03:48.843Z,11.10
2019-05-26T22:06:20.860Z,11.10
2019-05-26T22:08:51.028Z,11.10
2019-05-26T22:11:22.475Z,11.00
2019-05-26T22:13:53.215Z,10.90
2019-05-26T22:16:24.628Z,10.90
2019-05-26T22:18:55.669Z,10.90
2019-05-26T22:21:25.803Z,10.90
2019-05-26T22:24:00.924Z,10.80
2019-05-26T22:26:36.998Z,10.80
2019-05-26T22:29:09.047Z,10.90
2019-05-26T22:31:45.227Z,10.80
2019-05-26T22:34:15.311Z,10.80
2019-05-26T22:36:45.432Z,10.70
2019-05-26T22:39:23.360Z,10.70
2019-05-26T22:41:55.487Z,10.70
2019-05-26T22:44:29.756Z,10.80
2019-05-26T22:47:06.957Z,10.90
2019-05-26T22:49:37.048Z,11.00
2019-05-26T22:52:07.217Z,11.20
2019-05-26T22:54:48.251Z,11.40
2019-05-26T22:57:30.703Z,11.50
2019-05-26T23:00:00.809Z,11.60
2019-05-26T23:02:30.975Z,11.70
2019-05-26T23:05:08.377Z,11.80
2019-05-26T23:07:42.575Z,11.90
2019-05-26T23:10:14.532Z,12.00
2019-05-26T23:12:44.664Z,12.00
2019-05-26T23:15:20.495Z,12.00
2019-05-26T23:17:59.443Z,12.00
2019-05-26T23:20:29.548Z,11.90
2019-05-26T23:23:00.595Z,11.80
2019-05-26T23:25:30.702Z,11.70
2019-05-26T23:28:00.784Z,11.60
2019-05-26T23:30:30.876Z,11.40
2019-05-26T23:33:02.964Z,11.20
2019-05-26T23:35:34.975Z,11.10
2019-05-26T23:38:05.053Z,11.10
2019-05-26T23:40:35.183Z,11.10
2019-05-26T23:43:07.326Z,11.10
2019-05-26T23:45:46.396Z,11.10
2019-05-26T23:48:27.608Z,11.10
2019-05-26T23:50:57.710Z,11.10
2019-05-26T23:53:28.740Z,11.00
2019-05-26T23:55:58.859Z,10.90
2019-05-26T23:58:28.918Z,10.80
